Portada
METAR-TAF:

METAR-TAF

Aeroports :

Zaqatala, Azerbaidjan

latitud: 41-33-44N, longitud: 46-40-02E, altitud: 330 m

Observació

L'informe es va fer fa 38 minuts, a les 12:00 UTC
Vent 8 kt del Sud/Sud-Oest
Temperatura 33°C
Humitat 30%
Pressió 1014 hPa
Visibilitat 10 km o més
Escasses núvols a una alçada de 10000 ft

METAR: UBBY 041200Z 21008KT 9999 FEW100 33/13 Q1014 R33/////// NOSIG RMK MT OP

Hora: 16:38 (12:38 UTC)

Pronòstic

L'informe es va fer fa 1 hora i 38 minuts, a les 11:00 UTC
Pronòstic vàlid del 04 a les 12 UTC al 04 a les 21 UTC
Vent 4 kt amb direcció variable
Visibilitat 10 km o més
Escasses núvols a una alçada de 4000 ft
Núvols disperses a una alçada de 10000 ft
Temporalment
l' 04 a les 15 UTC al 04 a les 21 UTC
Vent 8 kt del Est

TAF: UBBY 041100Z 0412/0421 VRB04KT 9999 FEW040 SCT100 TEMPO 0415/0421 10008KT

Observacions i pronòstics meteorològics de més de 4000 aeroports (METAR i TAF).

Les estacions disponibles són els punts grocs i vermells al mapa.

Posi el ratolí al punt desitjat per veure el nom de l'estació.

Feu clic per veure les observacions i els pronòstics meteorològics.

Per canviar el mapa: feu clic els botons verds amb una creu de color negre per apropar; al botó verd amb un guió per allunyar la imatge; o en les fletxes verdes per a mapes adjacents.


METAR-TAF: